Time;durP1;ratioP1;P1;durP2;ratioP2;P2;SDS_P1;SDS_P2;PMS_P1;PMS_P2;Temp;Humidity;BMP_temperature;BMP_pressure;BME280_temperature;BME280_humidity;BME280_pressure;Samples;Min_cycle;Max_cycle;Signal;HPM_P1;HPM_P2
2021/01/07 00:01:40;;;;;;;11.70;8.17;;;;;;;1.75;100.00;95855.63;5074106;28;20410;-86
2021/01/07 00:04:06;;;;;;;12.73;7.43;;;;;;;1.69;100.00;95859.53;5073937;28;20453;-86
2021/01/07 00:06:33;;;;;;;13.33;7.77;;;;;;;1.66;100.00;95860.50;5074041;28;20974;-86
2021/01/07 00:09:00;;;;;;;10.47;6.30;;;;;;;1.62;100.00;95855.44;5073894;28;20457;-87
2021/01/07 00:11:27;;;;;;;12.87;7.07;;;;;;;1.66;100.00;95860.50;5073949;28;20508;-87
2021/01/07 00:13:53;;;;;;;10.03;6.17;;;;;;;1.74;100.00;95859.47;5075257;28;20481;-85
2021/01/07 00:16:20;;;;;;;10.33;6.93;;;;;;;1.65;100.00;95859.06;5077900;28;20445;-85
2021/01/07 00:18:46;;;;;;;10.60;6.40;;;;;;;1.68;100.00;95858.81;5077662;28;20416;-85
2021/01/07 00:21:13;;;;;;;7.33;5.63;;;;;;;1.65;100.00;95859.06;5077155;28;20452;-86
2021/01/07 00:23:40;;;;;;;6.83;5.63;;;;;;;1.73;100.00;95863.34;5077308;28;20466;-84
2021/01/07 00:26:07;;;;;;;8.20;6.87;;;;;;;1.83;100.00;95855.78;5078025;28;20886;-84
2021/01/07 00:28:34;;;;;;;7.10;5.90;;;;;;;1.96;100.00;95862.00;5081471;28;20444;-84
2021/01/07 00:31:00;;;;;;;7.30;5.73;;;;;;;1.83;100.00;95861.84;5093218;28;20476;-84
2021/01/07 00:33:27;;;;;;;8.57;6.07;;;;;;;1.82;100.00;95857.00;5081607;28;20462;-84
2021/01/07 00:35:53;;;;;;;9.70;5.80;;;;;;;1.77;100.00;95866.47;5077022;28;20458;-85
2021/01/07 00:38:19;;;;;;;10.50;7.40;;;;;;;1.80;100.00;95867.41;5077666;28;20529;-86
2021/01/07 00:40:46;;;;;;;9.53;6.70;;;;;;;1.79;100.00;95865.97;5077218;28;20536;-86
2021/01/07 00:43:13;;;;;;;9.40;6.57;;;;;;;1.74;100.00;95864.81;5077270;28;20472;-86
2021/01/07 00:45:40;;;;;;;11.43;7.57;;;;;;;1.72;100.00;95867.25;5076729;28;20532;-86
2021/01/07 00:48:07;;;;;;;10.80;7.33;;;;;;;1.74;100.00;95864.06;5077421;28;20479;-86
2021/01/07 00:50:34;;;;;;;12.30;6.83;;;;;;;1.70;100.00;95858.28;5076751;28;20543;-86
2021/01/07 00:53:00;;;;;;;10.33;6.60;;;;;;;1.66;100.00;95863.88;5077053;28;20929;-86
2021/01/07 00:55:27;;;;;;;12.07;7.40;;;;;;;1.72;100.00;95853.22;5076789;28;20946;-85
2021/01/07 00:57:53;;;;;;;12.90;8.10;;;;;;;1.72;100.00;95859.25;5076537;28;20445;-87
2021/01/07 01:00:22;;;;;;;12.87;7.97;;;;;;;1.73;100.00;95854.66;5076315;28;20512;-87
2021/01/07 01:02:49;;;;;;;9.90;7.70;;;;;;;1.68;100.00;95858.06;5076498;28;20544;-86
2021/01/07 01:05:15;;;;;;;10.43;7.33;;;;;;;1.68;100.00;95861.47;5076321;28;20465;-86
2021/01/07 01:07:42;;;;;;;10.13;7.00;;;;;;;1.81;100.00;95853.66;5076802;28;20456;-87
2021/01/07 01:10:10;;;;;;;15.43;8.50;;;;;;;1.82;100.00;95857.00;5076149;28;20522;-86
2021/01/07 01:12:38;;;;;;;9.43;7.17;;;;;;;1.72;100.00;95861.19;5076638;28;20966;-86
2021/01/07 01:15:09;;;;;;;10.70;7.90;;;;;;;1.73;100.00;95852.00;5075863;28;20844;-86
2021/01/07 01:17:36;;;;;;;15.83;8.63;;;;;;;1.63;100.00;95856.19;5076304;28;20437;-86
2021/01/07 01:20:05;;;;;;;13.00;8.20;;;;;;;1.58;100.00;95860.31;5076755;28;20536;-85
2021/01/07 01:22:32;;;;;;;12.33;8.17;;;;;;;1.58;100.00;95858.38;5076059;28;20465;-86
2021/01/07 01:25:00;;;;;;;9.57;7.03;;;;;;;1.58;100.00;95863.69;5075509;28;20498;-86
2021/01/07 01:27:26;;;;;;;14.33;8.10;;;;;;;1.64;100.00;95858.34;5075590;28;20457;-86
2021/01/07 01:29:53;;;;;;;13.97;7.50;;;;;;;1.74;100.00;95864.06;5075483;28;20584;-86
2021/01/07 01:32:19;;;;;;;10.43;7.30;;;;;;;1.62;100.00;95863.44;5075614;28;20472;-86
2021/01/07 01:34:47;;;;;;;11.47;8.30;;;;;;;1.57;100.00;95867.56;5091526;28;20525;-86
2021/01/07 01:37:14;;;;;;;8.93;6.87;;;;;;;1.76;100.00;95865.03;5095725;28;20444;-86
2021/01/07 01:39:40;;;;;;;11.80;8.70;;;;;;;1.78;100.00;95869.84;5095980;28;20535;-86
2021/01/07 01:42:08;;;;;;;12.50;8.40;;;;;;;1.69;100.00;95865.56;5096156;28;20847;-86
2021/01/07 01:44:35;;;;;;;12.77;8.53;;;;;;;1.64;100.00;95866.31;5095416;28;20459;-86
2021/01/07 01:47:01;;;;;;;8.23;6.17;;;;;;;1.63;100.00;95870.16;5095616;28;20432;-85
2021/01/07 01:49:28;;;;;;;12.13;8.83;;;;;;;1.60;100.00;95865.84;5095452;28;20537;-84
2021/01/07 01:51:56;;;;;;;10.17;8.00;;;;;;;1.61;100.00;95869.94;5095790;28;20447;-84
2021/01/07 01:54:23;;;;;;;14.90;8.80;;;;;;;1.59;100.00;95872.38;5095544;28;20464;-84
2021/01/07 01:56:55;;;;;;;11.33;8.00;;;;;;;1.55;100.00;95875.31;5095885;28;20452;-84
2021/01/07 01:59:24;;;;;;;12.07;8.57;;;;;;;1.59;100.00;95867.81;5095553;28;20901;-85
2021/01/07 02:01:52;;;;;;;12.57;8.93;;;;;;;1.58;100.00;95868.28;5095718;28;20448;-84
2021/01/07 02:04:18;;;;;;;11.60;8.40;;;;;;;1.59;100.00;95867.81;5095005;28;20536;-86
2021/01/07 02:06:45;;;;;;;13.27;8.90;;;;;;;1.55;100.00;95869.25;5095172;28;20910;-86
2021/01/07 02:09:13;;;;;;;13.60;8.33;;;;;;;1.52;100.00;95876.28;5095500;28;20886;-86
2021/01/07 02:11:40;;;;;;;13.77;8.80;;;;;;;1.49;100.00;95869.28;5095084;28;20567;-86
2021/01/07 02:14:06;;;;;;;13.70;9.50;;;;;;;1.47;100.00;95871.72;5094817;28;20426;-86
2021/01/07 02:16:33;;;;;;;13.00;8.90;;;;;;;1.53;100.00;95874.34;5094939;28;20502;-86
2021/01/07 02:18:59;;;;;;;13.10;9.20;;;;;;;1.52;100.00;95873.63;5095546;28;20531;-86
2021/01/07 02:21:26;;;;;;;11.53;8.70;;;;;;;1.57;100.00;95869.47;5095365;28;20437;-86
2021/01/07 02:23:55;;;;;;;13.40;8.70;;;;;;;1.51;100.00;95871.44;5095023;28;20480;-86
2021/01/07 02:26:22;;;;;;;12.10;8.47;;;;;;;1.55;100.00;95872.66;5095242;28;20456;-87
2021/01/07 02:28:49;;;;;;;12.17;8.87;;;;;;;1.53;100.00;95869.75;5095116;28;20948;-86
2021/01/07 02:31:16;;;;;;;14.37;8.37;;;;;;;1.53;100.00;95874.34;5095176;28;20927;-86
2021/01/07 02:33:43;;;;;;;13.00;7.90;;;;;;;1.48;100.00;95878.47;5095217;28;20549;-86
2021/01/07 02:36:10;;;;;;;12.03;7.90;;;;;;;1.51;100.00;95871.44;5094835;28;20459;-85
2021/01/07 02:38:38;;;;;;;12.80;7.70;;;;;;;1.50;100.00;95878.00;5094129;28;20444;-86
2021/01/07 02:41:05;;;;;;;9.53;7.40;;;;;;;1.42;100.00;95875.13;5095458;28;20917;-86
2021/01/07 02:43:32;;;;;;;12.10;6.80;;;;;;;1.41;100.00;95868.34;5104668;28;20436;-87
2021/01/07 02:45:58;;;;;;;10.20;6.87;;;;;;;1.42;100.00;95869.09;5119514;28;20423;-85
2021/01/07 02:48:24;;;;;;;10.63;6.87;;;;;;;1.42;100.00;95869.81;5119417;28;20443;-85
2021/01/07 02:50:51;;;;;;;10.03;6.90;;;;;;;1.37;100.00;95859.94;5119329;28;20485;-86
2021/01/07 02:53:17;;;;;;;9.67;6.63;;;;;;;1.40;100.00;95860.88;5115598;28;20470;-87
2021/01/07 02:55:44;;;;;;;10.07;6.87;;;;;;;1.36;100.00;95868.38;5099001;28;20964;-87
2021/01/07 02:58:11;;;;;;;6.97;5.77;;;;;;;1.40;100.00;95864.28;5094988;28;20443;-87
2021/01/07 03:00:38;;;;;;;11.43;7.33;;;;;;;1.34;100.00;95855.59;5094374;28;20539;-86
2021/01/07 03:03:06;;;;;;;8.90;5.30;;;;;;;1.36;100.00;95855.09;5094038;28;20488;-87
2021/01/07 03:05:32;;;;;;;10.00;6.23;;;;;;;1.41;100.00;95854.38;5094573;28;20449;-86
2021/01/07 03:07:59;;;;;;;8.23;5.50;;;;;;;1.43;100.00;95854.59;5094539;28;20421;-87
2021/01/07 03:10:25;;;;;;;5.83;5.20;;;;;;;1.47;100.00;95858.41;5094558;28;20451;-87
2021/01/07 03:12:52;;;;;;;8.50;6.23;;;;;;;1.47;100.00;95855.75;5094935;28;20460;-86
2021/01/07 03:15:19;;;;;;;6.53;5.13;;;;;;;1.38;100.00;95860.66;5094293;28;20439;-88
2021/01/07 03:17:47;;;;;;;11.53;5.90;;;;;;;1.36;100.00;95855.09;5094579;28;20444;-87
2021/01/07 03:20:15;;;;;;;8.77;6.03;;;;;;;1.33;100.00;95851.50;5094546;28;20439;-86
2021/01/07 03:22:42;;;;;;;10.33;5.70;;;;;;;1.34;100.00;95850.28;5094385;28;20527;-86
2021/01/07 03:25:10;;;;;;;8.70;5.70;;;;;;;1.33;100.00;95856.09;5094252;28;20562;-86
2021/01/07 03:27:37;;;;;;;9.53;5.97;;;;;;;1.29;100.00;95855.63;5094019;28;20437;-86
2021/01/07 03:30:06;;;;;;;6.57;5.20;;;;;;;1.36;100.00;95861.16;5094379;28;20865;-87
2021/01/07 03:32:32;;;;;;;6.50;5.20;;;;;;;1.31;100.00;95848.63;5094485;28;20464;-87
2021/01/07 03:34:58;;;;;;;8.73;5.03;;;;;;;1.30;100.00;95857.06;5094744;28;21041;-86
2021/01/07 03:37:25;;;;;;;7.03;5.10;;;;;;;1.28;100.00;95862.16;5094301;28;20429;-86
2021/01/07 03:39:51;;;;;;;7.13;5.10;;;;;;;1.27;100.00;95844.75;5094681;28;20445;-87
2021/01/07 03:42:17;;;;;;;6.07;4.33;;;;;;;1.22;100.00;95853.50;5094797;28;20456;-87
2021/01/07 03:44:44;;;;;;;5.97;4.60;;;;;;;1.26;100.00;95848.63;5095090;28;20437;-87
2021/01/07 03:47:11;;;;;;;6.27;5.30;;;;;;;1.27;100.00;95845.50;5094483;28;20445;-87
2021/01/07 03:49:37;;;;;;;9.03;5.00;;;;;;;1.27;100.00;95839.44;5097224;28;20921;-86
2021/01/07 03:52:04;;;;;;;8.20;5.43;;;;;;;1.25;100.00;95847.19;5098155;28;20941;-86
2021/01/07 03:54:30;;;;;;;9.87;5.10;;;;;;;1.24;100.00;95837.78;5098591;28;20489;-85
2021/01/07 03:56:57;;;;;;;9.90;5.43;;;;;;;1.20;100.00;95843.34;5098087;28;20807;-86
2021/01/07 03:59:23;;;;;;;11.90;6.63;;;;;;;1.20;100.00;95835.38;5098164;28;20444;-85
2021/01/07 04:01:49;;;;;;;6.30;4.83;;;;;;;1.16;100.00;95839.50;5098533;28;20441;-84
2021/01/07 04:04:17;;;;;;;5.93;4.83;;;;;;;1.29;100.00;95840.41;5098019;28;20464;-84
2021/01/07 04:06:43;;;;;;;7.00;5.13;;;;;;;1.34;100.00;95842.31;5097937;28;20444;-83
2021/01/07 04:09:09;;;;;;;7.53;4.90;;;;;;;1.31;100.00;95840.66;5098180;28;20458;-84
2021/01/07 04:11:36;;;;;;;7.70;4.90;;;;;;;1.37;100.00;95841.34;5098238;28;20480;-83
2021/01/07 04:14:02;;;;;;;7.53;4.63;;;;;;;1.39;100.00;95830.19;5098568;28;20444;-85
2021/01/07 04:16:28;;;;;;;7.17;5.13;;;;;;;1.37;100.00;95836.03;5099104;28;20443;-83
2021/01/07 04:18:55;;;;;;;8.20;5.67;;;;;;;1.32;100.00;95834.09;5099248;28;20428;-84
2021/01/07 04:21:22;;;;;;;7.23;5.00;;;;;;;1.30;100.00;95831.22;5098788;28;20436;-85
2021/01/07 04:23:49;;;;;;;9.10;5.67;;;;;;;1.37;100.00;95830.72;5098511;28;20452;-84
2021/01/07 04:26:16;;;;;;;8.43;5.80;;;;;;;1.25;100.00;95823.28;5098457;28;20444;-83
2021/01/07 04:28:42;;;;;;;10.10;6.60;;;;;;;1.23;100.00;95823.03;5098162;28;20468;-84
2021/01/07 04:31:09;;;;;;;9.80;6.37;;;;;;;1.18;100.00;95821.88;5097942;28;20461;-84
2021/01/07 04:33:35;;;;;;;10.00;6.17;;;;;;;1.26;100.00;95824.72;5098709;28;20465;-86
2021/01/07 04:36:02;;;;;;;9.10;6.37;;;;;;;1.27;100.00;95820.84;5097954;28;20527;-85
2021/01/07 04:38:29;;;;;;;9.87;6.23;;;;;;;1.24;100.00;95819.91;5098564;28;20937;-85
2021/01/07 04:40:56;;;;;;;7.63;5.90;;;;;;;1.22;100.00;95829.56;5097567;28;20486;-85
2021/01/07 04:43:22;;;;;;;13.33;7.60;;;;;;;1.17;100.00;95820.41;5097881;28;20455;-85
2021/01/07 04:45:49;;;;;;;10.37;6.37;;;;;;;1.23;100.00;95828.34;5097378;28;20449;-84
2021/01/07 04:48:16;;;;;;;9.00;5.97;;;;;;;1.16;100.00;95834.19;5097621;28;20429;-84
2021/01/07 04:50:42;;;;;;;11.03;6.90;;;;;;;1.16;100.00;95834.19;5097747;28;20468;-86
2021/01/07 04:53:10;;;;;;;12.90;6.57;;;;;;;1.28;100.00;95840.91;5097585;28;21007;-87
2021/01/07 04:55:37;;;;;;;9.27;5.93;;;;;;;1.32;100.00;95838.69;5097360;28;20437;-86
2021/01/07 04:58:04;;;;;;;10.27;6.30;;;;;;;1.25;100.00;95825.94;5097870;28;20439;-87
2021/01/07 05:00:33;;;;;;;10.43;6.00;;;;;;;1.31;100.00;95831.94;5097626;28;20528;-86
2021/01/07 05:03:01;;;;;;;11.30;7.73;;;;;;;1.22;100.00;95826.91;5097721;28;20479;-85
2021/01/07 05:05:27;;;;;;;11.83;7.30;;;;;;;1.23;100.00;95828.34;5097532;28;20583;-85
2021/01/07 05:07:54;;;;;;;8.40;6.07;;;;;;;1.24;100.00;95832.47;5096902;28;20931;-85
2021/01/07 05:10:23;;;;;;;10.10;7.23;;;;;;;1.23;100.00;95833.66;5097179;28;20488;-86
2021/01/07 05:12:53;;;;;;;11.93;7.23;;;;;;;1.23;100.00;95825.69;5097002;28;20475;-85
2021/01/07 05:15:19;;;;;;;10.47;6.80;;;;;;;1.22;100.00;95832.22;5096981;28;20409;-86
2021/01/07 05:17:45;;;;;;;8.50;6.70;;;;;;;1.25;100.00;95828.59;5096491;28;20467;-86
2021/01/07 05:20:13;;;;;;;11.67;8.43;;;;;;;1.24;100.00;95829.81;5096625;28;20528;-86
2021/01/07 05:22:41;;;;;;;12.10;7.93;;;;;;;1.19;100.00;95830.56;5096876;28;20431;-85
2021/01/07 05:25:10;;;;;;;13.10;8.53;;;;;;;1.14;100.00;95826.69;5096439;28;20878;-86
2021/01/07 05:27:39;;;;;;;13.60;8.27;;;;;;;1.17;100.00;95828.38;5096598;28;20444;-85
2021/01/07 05:30:09;;;;;;;10.83;7.63;;;;;;;1.27;100.00;95831.47;5096314;28;20512;-85
2021/01/07 05:32:37;;;;;;;13.67;7.93;;;;;;;1.31;100.00;95826.63;5096479;28;20445;-86
2021/01/07 05:35:06;;;;;;;11.20;7.80;;;;;;;1.24;100.00;95824.50;5096445;28;20436;-86
2021/01/07 05:37:35;;;;;;;13.13;7.53;;;;;;;1.27;100.00;95824.22;5096702;28;20443;-86
2021/01/07 05:40:01;;;;;;;17.07;8.50;;;;;;;1.31;100.00;95829.28;5095842;28;20531;-86
2021/01/07 05:42:35;;;;;;;12.13;7.83;;;;;;;1.27;100.00;95815.53;5102883;28;20456;-85
2021/01/07 05:45:05;;;;;;;11.07;7.37;;;;;;;1.35;100.00;95832.38;5120221;28;20415;-86
2021/01/07 05:47:39;;;;;;;12.70;7.73;;;;;;;1.37;100.00;95829.97;5119758;28;20413;-86
2021/01/07 05:50:07;;;;;;;12.33;7.77;;;;;;;1.37;100.00;95825.41;5119583;28;20499;-86
2021/01/07 05:52:34;;;;;;;13.33;8.23;;;;;;;1.37;100.00;95827.31;5111944;28;20921;-84
2021/01/07 05:55:01;;;;;;;14.37;9.10;;;;;;;1.30;100.00;95819.88;5115025;28;20444;-85
2021/01/07 05:57:29;;;;;;;11.73;7.53;;;;;;;1.24;100.00;95817.25;5114041;28;20440;-83
2021/01/07 05:59:57;;;;;;;12.20;8.63;;;;;;;1.29;100.00;95823.72;5111027;28;20444;-85
2021/01/07 06:02:23;;;;;;;13.50;8.23;;;;;;;1.33;100.00;95824.91;5111043;28;20433;-82
2021/01/07 06:04:52;;;;;;;15.37;9.53;;;;;;;1.38;100.00;95826.81;5113368;28;20441;-83
2021/01/07 06:07:19;;;;;;;16.10;9.50;;;;;;;1.36;100.00;95821.28;5096464;28;20429;-87
2021/01/07 06:09:48;;;;;;;12.80;8.80;;;;;;;1.33;100.00;95832.91;5096385;28;20501;-87
2021/01/07 06:12:16;;;;;;;11.67;7.50;;;;;;;1.27;100.00;95826.16;5095870;28;20471;-86
2021/01/07 06:14:44;;;;;;;20.57;10.20;;;;;;;1.25;100.00;95821.34;5096345;28;20923;-86
2021/01/07 06:17:11;;;;;;;14.87;9.73;;;;;;;1.24;100.00;95827.88;5095897;28;20449;-86
2021/01/07 06:19:39;;;;;;;16.03;9.53;;;;;;;1.31;100.00;95837.25;5096886;28;20785;-86
2021/01/07 06:22:11;;;;;;;13.90;9.00;;;;;;;1.37;100.00;95835.28;5096693;28;20432;-86
2021/01/07 06:24:38;;;;;;;14.37;9.23;;;;;;;1.38;100.00;95836.75;5097501;28;20543;-86
2021/01/07 06:27:29;;;;;;;15.43;9.83;;;;;;;1.49;100.00;95837.41;5096631;28;20928;-86
2021/01/07 06:30:21;;;;;;;15.77;9.87;;;;;;;1.45;100.00;95844.19;5097625;28;20460;-87
2021/01/07 06:33:00;;;;;;;15.87;9.90;;;;;;;1.41;100.00;95835.75;5098270;28;20465;-85
2021/01/07 06:35:33;;;;;;;13.33;8.17;;;;;;;1.46;100.00;95835.00;5098814;28;20551;-86
2021/01/07 06:38:01;;;;;;;16.10;9.83;;;;;;;1.43;100.00;95830.66;5099269;28;20416;-86
2021/01/07 06:40:27;;;;;;;15.40;9.20;;;;;;;1.45;100.00;95831.63;5100820;28;20387;-87
2021/01/07 06:42:55;;;;;;;14.70;9.80;;;;;;;1.44;100.00;95832.13;5109531;28;20461;-87
2021/01/07 06:45:23;;;;;;;18.33;9.77;;;;;;;1.47;100.00;95829.19;5096807;28;20429;-86
2021/01/07 06:47:52;;;;;;;16.10;10.23;;;;;;;1.46;100.00;95840.31;5095691;28;20551;-87
2021/01/07 06:50:19;;;;;;;16.90;9.67;;;;;;;1.49;100.00;95839.34;5096330;28;20465;-87
2021/01/07 06:52:47;;;;;;;17.13;10.80;;;;;;;1.49;100.00;95839.34;5096004;28;20472;-88
2021/01/07 06:55:17;;;;;;;15.57;9.90;;;;;;;1.50;100.00;95846.81;5097188;28;20496;-87
2021/01/07 06:57:44;;;;;;;19.80;9.90;;;;;;;1.47;100.00;95839.81;5095788;28;20452;-87
2021/01/07 07:00:12;;;;;;;19.00;10.27;;;;;;;1.50;100.00;95848.75;5095992;28;20435;-85
2021/01/07 07:02:39;;;;;;;18.63;10.47;;;;;;;1.45;100.00;95842.25;5096207;28;20802;-84
2021/01/07 07:05:07;;;;;;;18.97;11.80;;;;;;;1.46;100.00;95838.38;5096368;28;20506;-85
2021/01/07 07:08:04;;;;;;;17.90;10.40;;;;;;;1.43;100.00;95843.97;5095409;28;20432;-85
2021/01/07 07:11:07;;;;;;;17.47;10.53;;;;;;;1.46;100.00;95853.59;5091226;28;20996;-84
2021/01/07 07:13:40;;;;;;;18.77;11.07;;;;;;;1.44;100.00;95848.06;5095238;28;20988;-86
2021/01/07 07:16:08;;;;;;;15.03;9.60;;;;;;;1.52;100.00;95846.31;5096428;28;20433;-89
2021/01/07 07:18:36;;;;;;;16.50;9.80;;;;;;;1.80;100.00;95852.19;5095285;28;20498;-88
2021/01/07 07:21:17;;;;;;;20.90;9.87;;;;;;;2.02;99.25;95860.03;5095431;28;20444;-87
2021/01/07 07:23:44;;;;;;;18.70;10.97;;;;;;;2.11;98.29;95858.97;5097568;28;20497;-88
2021/01/07 07:26:13;;;;;;;19.07;12.67;;;;;;;2.09;98.08;95856.81;5100914;28;20932;-89
2021/01/07 07:28:46;;;;;;;17.63;10.13;;;;;;;2.12;97.36;95861.16;5101138;28;20542;-89
2021/01/07 07:31:12;;;;;;;21.00;11.23;;;;;;;2.24;96.96;95864.44;5100617;28;20491;-89
2021/01/07 07:33:41;;;;;;;19.80;11.67;;;;;;;2.21;96.53;95872.69;5102069;28;20464;-90
2021/01/07 07:36:09;;;;;;;14.73;10.47;;;;;;;2.21;96.27;95864.72;5102238;28;20436;-89
2021/01/07 07:38:38;;;;;;;19.03;10.83;;;;;;;2.07;97.19;95872.53;5101331;28;20452;-89
2021/01/07 07:41:07;;;;;;;16.60;11.00;;;;;;;2.12;96.93;95873.72;5101272;28;20441;-89
2021/01/07 07:43:36;;;;;;;19.07;10.90;;;;;;;2.24;96.72;95869.03;5100811;28;20472;-88
2021/01/07 07:46:04;;;;;;;14.80;9.73;;;;;;;2.31;96.89;95866.56;5102090;28;20473;-89
2021/01/07 07:48:32;;;;;;;16.33;10.23;;;;;;;2.35;96.02;95864.34;5102778;28;20448;-88
2021/01/07 07:51:08;;;;;;;17.17;10.30;;;;;;;2.35;95.65;95867.00;5102126;28;20571;-90
2021/01/07 07:53:35;;;;;;;16.80;9.73;;;;;;;2.32;95.05;95867.28;5099991;28;20513;-90
2021/01/07 07:56:02;;;;;;;17.87;10.53;;;;;;;2.41;94.34;95866.97;5101070;28;20432;-88
2021/01/07 07:58:29;;;;;;;15.13;10.20;;;;;;;2.15;95.74;95872.75;5099818;28;20436;-90
2021/01/07 08:00:57;;;;;;;17.43;10.70;;;;;;;2.24;95.21;95872.44;5100821;28;20452;-89
2021/01/07 08:03:25;;;;;;;17.30;10.10;;;;;;;2.22;95.46;95882.13;5099953;28;20539;-89
2021/01/07 08:05:52;;;;;;;16.27;9.93;;;;;;;2.23;95.33;95878.97;5102220;28;20443;-89
2021/01/07 08:08:23;;;;;;;18.90;10.37;;;;;;;2.16;95.75;95890.84;5100424;28;20474;-88
2021/01/07 08:10:50;;;;;;;21.53;11.70;;;;;;;2.15;95.54;95881.44;5099241;28;20511;-88
2021/01/07 08:13:19;;;;;;;18.07;10.87;;;;;;;2.29;95.71;95886.91;5099538;28;20455;-87
2021/01/07 08:15:50;;;;;;;20.97;10.80;;;;;;;2.29;95.81;95884.25;5100341;28;20493;-89
2021/01/07 08:18:19;;;;;;;19.87;11.30;;;;;;;2.39;95.78;95888.75;5102306;28;20448;-88
2021/01/07 08:20:46;;;;;;;18.40;11.17;;;;;;;2.25;95.98;95884.53;5107824;28;20516;-93
2021/01/07 08:23:14;;;;;;;19.30;11.17;;;;;;;2.14;96.17;95893.31;5116521;28;20450;-91
2021/01/07 08:25:41;;;;;;;20.33;11.40;;;;;;;2.08;97.29;95892.63;5116267;28;20494;-91
2021/01/07 08:28:19;;;;;;;23.80;11.50;;;;;;;2.01;97.20;95901.13;5099809;28;20531;-88
2021/01/07 08:30:49;;;;;;;20.50;10.50;;;;;;;1.94;97.76;95906.97;5099494;28;20567;-88
2021/01/07 08:33:20;;;;;;;20.53;11.83;;;;;;;1.94;98.20;95904.31;5100645;28;20536;-84
2021/01/07 08:35:47;;;;;;;18.30;11.10;;;;;;;1.95;98.39;95900.44;5101433;28;20436;-89
2021/01/07 08:38:24;;;;;;;20.07;10.90;;;;;;;2.02;98.35;95899.19;5101440;28;20936;-91
2021/01/07 08:40:50;;;;;;;21.67;13.40;;;;;;;2.02;98.79;95907.91;5090001;28;20446;-91
2021/01/07 08:43:16;;;;;;;14.17;9.93;;;;;;;2.05;98.84;95911.50;5080196;28;20458;-89
2021/01/07 08:45:43;;;;;;;22.60;11.20;;;;;;;2.09;98.31;95907.38;5080933;28;20441;-91
2021/01/07 08:48:10;;;;;;;23.83;11.53;;;;;;;2.10;98.01;95903.47;5087355;28;20498;-91
2021/01/07 08:50:38;;;;;;;21.33;11.53;;;;;;;2.11;98.36;95914.84;5092988;28;20492;-90
2021/01/07 08:53:14;;;;;;;19.43;12.17;;;;;;;2.17;97.89;95910.22;5100427;28;20452;-88
2021/01/07 08:55:46;;;;;;;23.67;12.80;;;;;;;2.14;98.43;95906.59;5100254;28;20445;-90
2021/01/07 09:00:48;;;;;;;19.33;10.87;;;;;;;2.27;97.81;95902.66;5100456;22;20501;-82
2021/01/07 09:03:14;;;;;;;20.73;11.00;;;;;;;2.31;97.24;95908.44;5064008;28;20457;-85
2021/01/07 09:05:42;;;;;;;15.00;9.83;;;;;;;2.37;97.33;95911.78;5059217;28;20941;-88
2021/01/07 09:08:09;;;;;;;16.70;10.37;;;;;;;2.35;96.40;95904.25;5059759;28;20443;-89
2021/01/07 09:10:36;;;;;;;16.50;10.87;;;;;;;2.38;96.70;95902.56;5059839;28;20489;-89
2021/01/07 09:13:18;;;;;;;18.43;10.13;;;;;;;2.46;95.82;95908.78;5059848;28;20454;-89
2021/01/07 09:15:45;;;;;;;18.53;10.67;;;;;;;2.38;95.50;95903.28;5059509;28;20506;-90
2021/01/07 09:18:12;;;;;;;14.73;9.90;;;;;;;2.42;95.79;95905.66;5075030;28;20431;-88
2021/01/07 09:20:38;;;;;;;14.77;10.57;;;;;;;2.44;96.06;95898.66;5080111;28;20431;-89
2021/01/07 09:23:07;;;;;;;16.40;10.20;;;;;;;2.60;95.46;95905.75;5079552;28;20454;-91
2021/01/07 09:25:34;;;;;;;19.00;11.10;;;;;;;2.56;95.67;95915.25;5067329;28;20490;-90
2021/01/07 09:28:01;;;;;;;16.83;10.33;;;;;;;2.58;95.86;95900.22;5058620;28;20446;-90
2021/01/07 09:30:28;;;;;;;19.10;11.40;;;;;;;2.61;95.40;95909.13;5058360;28;20571;-88
2021/01/07 09:32:56;;;;;;;19.57;10.93;;;;;;;2.61;95.38;95909.88;5060386;28;20470;-92
2021/01/07 09:35:23;;;;;;;15.20;10.70;;;;;;;2.49;96.32;95911.19;5059459;28;20451;-92
2021/01/07 09:37:50;;;;;;;19.60;10.80;;;;;;;2.46;96.72;95916.78;5058245;28;20441;-89
2021/01/07 09:40:17;;;;;;;15.13;10.40;;;;;;;2.56;96.01;95907.97;5060988;28;20472;-90
2021/01/07 09:42:44;;;;;;;17.03;10.87;;;;;;;2.56;96.01;95912.59;5059830;28;20998;-88
2021/01/07 09:45:12;;;;;;;17.90;11.97;;;;;;;2.54;96.04;95923.72;5059642;28;20506;-90
2021/01/07 09:47:38;;;;;;;18.13;11.60;;;;;;;2.57;96.56;95916.66;5056731;28;20765;-86
2021/01/07 09:50:06;;;;;;;18.23;12.40;;;;;;;2.55;96.29;95916.44;5056943;28;20505;-86
2021/01/07 09:52:33;;;;;;;18.17;10.40;;;;;;;2.58;96.13;95908.19;5058207;28;20429;-86
2021/01/07 09:55:00;;;;;;;20.50;12.40;;;;;;;2.69;95.67;95908.09;5057491;28;20434;-86
2021/01/07 09:57:27;;;;;;;21.33;13.30;;;;;;;2.64;95.59;95910.81;5058227;28;20446;-85
2021/01/07 09:59:54;;;;;;;23.10;12.37;;;;;;;2.69;95.74;95910.75;5056928;28;20495;-86
2021/01/07 10:02:20;;;;;;;17.47;11.93;;;;;;;2.85;95.41;95913.78;5057705;28;20512;-87
2021/01/07 10:04:47;;;;;;;19.90;11.67;;;;;;;2.78;94.74;95912.38;5059512;28;20423;-89
2021/01/07 10:07:14;;;;;;;23.67;12.70;;;;;;;2.79;95.22;95913.81;5059436;28;20456;-89
2021/01/07 10:09:41;;;;;;;17.13;10.43;;;;;;;2.80;95.66;95909.94;5057389;28;20442;-87
2021/01/07 10:12:08;;;;;;;18.57;10.57;;;;;;;2.91;94.92;95912.50;5056865;28;20525;-91
2021/01/07 10:14:36;;;;;;;22.83;12.10;;;;;;;2.87;94.61;95900.66;5058639;28;20422;-87
2021/01/07 10:17:04;;;;;;;18.27;11.47;;;;;;;2.82;95.11;95907.47;5057873;28;20458;-85
2021/01/07 10:19:32;;;;;;;18.10;11.50;;;;;;;2.85;95.24;95903.81;5057112;28;20448;-89
2021/01/07 10:22:01;;;;;;;18.93;11.40;;;;;;;2.86;94.93;95905.28;5058234;28;20446;-89
2021/01/07 10:24:28;;;;;;;20.57;11.70;;;;;;;2.96;94.98;95903.72;5059202;28;20509;-88
2021/01/07 10:27:00;;;;;;;17.83;11.03;;;;;;;2.96;94.49;95898.41;5060510;28;20798;-89
2021/01/07 10:29:28;;;;;;;19.80;11.43;;;;;;;2.94;94.45;95900.84;5059044;28;20521;-88
2021/01/07 10:31:59;;;;;;;19.00;11.40;;;;;;;3.00;94.35;95906.84;5058392;28;20965;-91
2021/01/07 10:34:28;;;;;;;16.50;10.87;;;;;;;3.02;93.97;95903.66;5060201;28;20450;-91
2021/01/07 10:36:57;;;;;;;20.60;11.97;;;;;;;3.03;93.46;95903.16;5062651;28;20935;-90
2021/01/07 10:39:25;;;;;;;17.87;11.50;;;;;;;2.95;94.64;95904.22;5071971;28;20456;-89
2021/01/07 10:41:55;;;;;;;22.60;11.30;;;;;;;2.93;93.67;95896.72;5078261;28;20419;-88
2021/01/07 10:44:22;;;;;;;17.60;11.60;;;;;;;2.96;93.77;95895.00;5073076;28;20434;-89
2021/01/07 10:46:57;;;;;;;16.90;11.30;;;;;;;3.11;93.09;95892.66;5060368;28;20489;-90
2021/01/07 10:49:30;;;;;;;18.10;11.67;;;;;;;3.17;92.11;95891.38;5059757;28;20412;-87
2021/01/07 10:52:16;;;;;;;21.30;11.70;;;;;;;3.19;92.74;95880.94;5057547;28;20461;-88
2021/01/07 10:54:53;;;;;;;22.10;11.70;;;;;;;3.16;93.30;95879.25;5073483;28;20491;-90
2021/01/07 10:57:50;;;;;;;15.93;9.80;;;;;;;3.34;92.50;95879.81;5070846;28;20398;-90
2021/01/07 11:10:38;;;;;;;17.83;11.23;;;;;;;3.33;91.28;95865.75;5037587;28;20479;-87
2021/01/07 11:13:08;;;;;;;18.80;12.07;;;;;;;3.36;91.51;95864.75;5040683;28;20483;-89
2021/01/07 11:15:39;;;;;;;19.70;11.73;;;;;;;3.46;90.67;95854.44;5046261;28;20920;-89
2021/01/07 11:18:08;;;;;;;18.57;11.53;;;;;;;3.59;90.71;95852.56;5048118;28;20777;-90
2021/01/07 11:20:39;;;;;;;15.83;10.67;;;;;;;3.49;90.16;95858.75;5038422;28;20440;-89
2021/01/07 11:23:06;;;;;;;17.30;9.83;;;;;;;3.48;90.11;95849.31;5037586;28;20470;-88
2021/01/07 11:25:34;;;;;;;18.50;10.63;;;;;;;3.48;90.28;95843.97;5037876;28;20418;-87
2021/01/07 11:28:02;;;;;;;17.47;10.97;;;;;;;3.47;90.28;95843.28;5037091;28;20410;-89
2021/01/07 11:30:29;;;;;;;19.30;11.63;;;;;;;3.49;90.07;95842.75;5037576;28;20414;-87
2021/01/07 11:32:55;;;;;;;20.83;12.13;;;;;;;3.43;90.23;95834.84;5037028;28;20451;-87
2021/01/07 11:35:22;;;;;;;17.57;10.10;;;;;;;3.61;88.45;95836.78;5036874;28;20428;-88
2021/01/07 11:38:00;;;;;;;14.67;9.43;;;;;;;3.59;86.57;95833.91;5036149;28;20442;-86
2021/01/07 11:40:33;;;;;;;15.67;8.90;;;;;;;3.55;87.76;95827.41;5036206;28;20904;-86
2021/01/07 11:43:24;;;;;;;13.43;8.40;;;;;;;3.59;87.04;95823.25;5036155;28;20546;-87
2021/01/07 11:45:56;;;;;;;16.13;9.60;;;;;;;3.53;88.06;95821.88;5037817;28;20435;-89